Millwood, Missouri
Current Conditions -  °F | °C
As of 9:54 AM on Monday 22 Dec 2014 (Local Time) from KSET Reporting Station
Light Rain Light Rain  
Wind Chill:   Ceiling: 700
Heat Index:   Visibility: 3mi
Dew Point:   Wind: 13mph
Humidity: 96%   Direction: 140°SE
Pressure: 29.71"   Gusts: NA
Location:  39.1404°N, 91.0631°W
Report Text: KSET 221554Z AUTO 14011KT 3SM -RA BR OVC007 06/05 A2971 RMK AO2 SLP063 P0013 T00560050
Loading
Personal Weather Stations






























Interactive Weather Map New forecast layout! Learn more

10-Day Weather Forecast

Advertisements
Track Severe Weather on mobile